createdAt,value
2018-11-26T00:00:23.771Z,63.33
2018-11-26T00:02:52.557Z,70.70
2018-11-26T00:05:22.110Z,56.65
2018-11-26T00:07:56.502Z,66.82
2018-11-26T00:10:36.521Z,67.00
2018-11-26T00:13:05.808Z,54.77
2018-11-26T00:15:34.569Z,66.07
2018-11-26T00:18:04.122Z,69.03
2018-11-26T00:20:32.884Z,59.50
2018-11-26T00:23:02.202Z,60.20
2018-11-26T00:25:30.876Z,59.93
2018-11-26T00:27:59.616Z,57.77
2018-11-26T00:30:28.357Z,55.90
2018-11-26T00:32:57.044Z,65.30
2018-11-26T00:35:25.731Z,61.30
2018-11-26T00:37:54.441Z,69.25
2018-11-26T00:40:23.159Z,75.73
2018-11-26T00:42:51.869Z,69.10
2018-11-26T00:45:20.563Z,51.53
2018-11-26T00:47:49.249Z,63.37
2018-11-26T00:50:18.058Z,63.02
2018-11-26T00:52:46.752Z,72.40
2018-11-26T00:55:15.451Z,55.80
2018-11-26T00:57:44.144Z,55.70
2018-11-26T01:00:13.063Z,56.40
2018-11-26T01:02:41.749Z,56.33
2018-11-26T01:05:20.041Z,71.72
2018-11-26T01:07:48.733Z,69.60
2018-11-26T01:10:17.730Z,55.17
2018-11-26T01:12:46.476Z,66.07
2018-11-26T01:15:15.204Z,60.83
2018-11-26T01:17:43.913Z,71.23
2018-11-26T01:20:12.611Z,77.82
2018-11-26T01:22:41.304Z,79.70
2018-11-26T01:25:09.968Z,58.97
2018-11-26T01:27:38.785Z,65.60
2018-11-26T01:30:08.888Z,57.55
2018-11-26T01:32:37.649Z,51.95
2018-11-26T01:35:07.492Z,65.50
2018-11-26T01:37:36.404Z,57.88
2018-11-26T01:40:10.301Z,60.08
2018-11-26T01:42:39.374Z,55.52
2018-11-26T01:45:08.072Z,50.40
2018-11-26T01:47:37.375Z,75.83
2018-11-26T01:50:07.316Z,57.73
2018-11-26T01:52:36.025Z,64.30
2018-11-26T01:55:04.861Z,71.90
2018-11-26T01:57:33.557Z,65.25
2018-11-26T02:00:02.661Z,53.03
2018-11-26T02:02:31.584Z,63.87
2018-11-26T02:05:00.330Z,59.17
2018-11-26T02:07:29.214Z,58.80
2018-11-26T02:09:58.242Z,65.23
2018-11-26T02:12:26.957Z,74.70
2018-11-26T02:14:55.680Z,63.43
2018-11-26T02:17:24.581Z,75.93
2018-11-26T02:19:53.357Z,77.20
2018-11-26T02:22:22.125Z,73.50
2018-11-26T02:24:50.873Z,63.27
2018-11-26T02:27:20.457Z,66.92
2018-11-26T02:29:48.440Z,62.60
2018-11-26T02:32:17.141Z,59.10
2018-11-26T02:34:45.824Z,61.13
2018-11-26T02:37:14.577Z,75.33
2018-11-26T02:39:43.257Z,81.27
2018-11-26T02:42:11.956Z,71.57
2018-11-26T02:44:40.663Z,64.13
2018-11-26T02:47:09.405Z,62.97
2018-11-26T02:49:38.180Z,61.17
2018-11-26T02:52:06.890Z,55.78
2018-11-26T02:54:35.564Z,53.07
2018-11-26T02:57:04.241Z,61.37
2018-11-26T02:59:32.937Z,54.93
2018-11-26T03:02:02.023Z,53.03
2018-11-26T03:04:30.699Z,58.97
2018-11-26T03:06:59.469Z,58.93
2018-11-26T03:09:28.149Z,52.17
2018-11-26T03:11:56.842Z,62.60
2018-11-26T03:14:25.652Z,55.30
2018-11-26T03:16:54.363Z,52.33
2018-11-26T03:19:23.037Z,58.33
2018-11-26T03:21:51.708Z,52.17
2018-11-26T03:24:20.589Z,50.40
2018-11-26T03:26:49.284Z,51.02
2018-11-26T03:29:18.068Z,56.30
2018-11-26T03:31:46.769Z,46.80
2018-11-26T03:34:15.440Z,60.70
2018-11-26T03:36:44.124Z,44.00
2018-11-26T03:39:12.808Z,47.83
2018-11-26T03:41:41.726Z,45.98
2018-11-26T03:44:10.389Z,46.23
2018-11-26T03:46:39.129Z,49.03
2018-11-26T03:49:07.819Z,52.60
2018-11-26T03:51:36.505Z,50.57
2018-11-26T03:54:05.288Z,54.08
2018-11-26T03:56:34.005Z,53.63
2018-11-26T03:59:03.213Z,50.43
2018-11-26T04:01:31.916Z,45.13
2018-11-26T04:04:02.216Z,41.63
2018-11-26T04:06:30.913Z,46.43
2018-11-26T04:08:59.649Z,42.20
2018-11-26T04:11:28.398Z,42.48
2018-11-26T04:13:57.070Z,42.50
2018-11-26T04:16:25.798Z,47.25
2018-11-26T04:18:54.479Z,44.43
2018-11-26T04:21:23.180Z,52.62
2018-11-26T04:23:51.894Z,52.47
2018-11-26T04:26:20.752Z,34.23
2018-11-26T04:28:49.434Z,46.90
2018-11-26T04:31:18.304Z,39.93
2018-11-26T04:33:46.993Z,47.53
2018-11-26T04:36:15.668Z,50.95
2018-11-26T04:38:44.333Z,41.93
2018-11-26T04:41:13.018Z,43.17
2018-11-26T04:43:41.716Z,37.60
2018-11-26T04:46:10.394Z,42.73
2018-11-26T04:48:39.145Z,41.07
2018-11-26T04:51:07.843Z,39.13
2018-11-26T04:53:36.521Z,43.50
2018-11-26T04:56:05.214Z,42.20
2018-11-26T04:58:33.893Z,40.37
2018-11-26T05:01:03.486Z,43.08
2018-11-26T05:03:32.820Z,44.25
2018-11-26T05:06:02.808Z,42.13
2018-11-26T05:08:31.511Z,41.20
2018-11-26T05:11:00.432Z,44.65
2018-11-26T05:13:29.593Z,46.73
2018-11-26T05:15:58.294Z,35.40
2018-11-26T05:18:27.205Z,46.13
2018-11-26T05:20:55.924Z,44.20
2018-11-26T05:23:24.643Z,38.75
2018-11-26T05:25:53.348Z,37.73
2018-11-26T05:28:22.037Z,35.50
2018-11-26T05:30:50.776Z,45.70
2018-11-26T05:33:19.492Z,40.87
2018-11-26T05:35:48.209Z,43.42
2018-11-26T05:38:16.929Z,45.37
2018-11-26T05:40:45.717Z,39.20
2018-11-26T05:43:14.415Z,38.13
2018-11-26T05:45:43.276Z,41.70
2018-11-26T05:48:11.967Z,39.30
2018-11-26T05:50:40.668Z,44.10
2018-11-26T05:53:09.424Z,46.20
2018-11-26T05:55:38.121Z,35.90
2018-11-26T05:58:07.176Z,40.43
2018-11-26T06:00:36.441Z,36.77
2018-11-26T06:03:05.712Z,40.13
2018-11-26T06:05:34.392Z,40.53
2018-11-26T06:08:03.840Z,44.93
2018-11-26T06:10:32.520Z,44.63
2018-11-26T06:13:03.104Z,47.65
2018-11-26T06:15:31.158Z,40.67
2018-11-26T06:17:59.853Z,51.45
2018-11-26T06:20:28.548Z,42.10
2018-11-26T06:22:57.256Z,33.83
2018-11-26T06:25:25.942Z,35.63
2018-11-26T06:27:54.678Z,41.07
2018-11-26T06:30:23.427Z,43.40
2018-11-26T06:32:52.153Z,44.03
2018-11-26T06:35:22.012Z,43.10
2018-11-26T06:37:50.716Z,36.90
2018-11-26T06:40:19.431Z,34.23
2018-11-26T06:42:48.144Z,37.28
2018-11-26T06:45:18.960Z,39.18
2018-11-26T06:47:47.777Z,36.70
2018-11-26T06:50:17.418Z,38.30
2018-11-26T06:52:46.097Z,38.70
2018-11-26T06:55:15.910Z,34.63
2018-11-26T06:57:44.713Z,39.45
2018-11-26T07:00:16.704Z,42.63
2018-11-26T07:02:45.512Z,46.60
2018-11-26T07:05:19.077Z,41.67
2018-11-26T07:07:48.131Z,39.20
2018-11-26T07:10:17.282Z,48.77
2018-11-26T07:12:46.014Z,43.60
2018-11-26T07:15:16.100Z,37.07
2018-11-26T07:17:44.994Z,43.70
2018-11-26T07:20:14.600Z,36.17
2018-11-26T07:22:43.304Z,38.13
2018-11-26T07:25:13.053Z,36.27
2018-11-26T07:27:42.157Z,34.77
2018-11-26T07:30:13.437Z,36.28
2018-11-26T07:32:42.486Z,35.57
2018-11-26T07:35:11.512Z,33.30
2018-11-26T07:37:40.249Z,35.47
2018-11-26T07:40:12.227Z,31.80
2018-11-26T07:42:42.620Z,27.17
2018-11-26T07:45:12.673Z,40.73
2018-11-26T07:47:41.456Z,31.77
2018-11-26T07:50:14.136Z,21.55
2018-11-26T07:52:42.952Z,25.97
2018-11-26T07:55:15.790Z,38.73
2018-11-26T07:57:44.665Z,39.90
2018-11-26T08:00:15.089Z,30.97
2018-11-26T08:02:44.233Z,36.30
2018-11-26T08:05:13.937Z,41.42
2018-11-26T08:07:42.747Z,37.87
2018-11-26T08:10:12.484Z,29.87
2018-11-26T08:12:41.284Z,32.03
2018-11-26T08:15:14.387Z,29.90
2018-11-26T08:17:43.174Z,22.30
2018-11-26T08:20:12.008Z,32.50
2018-11-26T08:22:40.750Z,34.48
2018-11-26T08:25:11.487Z,29.47
2018-11-26T08:27:40.565Z,30.00
2018-11-26T08:30:14.454Z,29.02
2018-11-26T08:32:43.957Z,28.70
2018-11-26T08:35:13.798Z,33.42
2018-11-26T08:37:47.814Z,31.10
2018-11-26T08:40:21.020Z,36.00
2018-11-26T08:42:51.416Z,29.10
2018-11-26T08:45:20.285Z,25.37
2018-11-26T08:47:54.337Z,28.93
2018-11-26T08:50:23.204Z,26.23
2018-11-26T08:52:51.893Z,29.73
2018-11-26T08:55:20.618Z,22.27
2018-11-26T08:57:49.412Z,34.33
2018-11-26T09:00:18.125Z,27.00
2018-11-26T09:02:53.203Z,29.10
2018-11-26T09:05:27.110Z,28.40
2018-11-26T09:07:55.813Z,26.90
2018-11-26T09:10:24.614Z,26.48
2018-11-26T09:12:53.296Z,29.17
2018-11-26T09:15:22.028Z,28.63
2018-11-26T09:17:50.922Z,34.23
2018-11-26T09:20:20.057Z,30.82
2018-11-26T09:22:49.002Z,26.63
2018-11-26T09:25:17.684Z,26.97
2018-11-26T09:27:46.385Z,24.87
2018-11-26T09:30:15.148Z,26.68
2018-11-26T09:32:43.938Z,22.90
2018-11-26T09:35:15.772Z,29.25
2018-11-26T09:37:44.644Z,25.87
2018-11-26T09:40:14.560Z,28.47
2018-11-26T09:42:43.308Z,32.05
2018-11-26T09:45:13.276Z,37.40
2018-11-26T09:47:41.980Z,30.07
2018-11-26T09:50:13.921Z,32.43
2018-11-26T09:52:42.613Z,27.13
2018-11-26T09:55:11.983Z,30.33
2018-11-26T09:57:40.666Z,34.43
2018-11-26T10:00:15.503Z,32.10
2018-11-26T10:02:47.365Z,29.17
2018-11-26T10:05:18.090Z,26.53
2018-11-26T10:07:46.794Z,28.77
2018-11-26T10:10:15.541Z,30.68
2018-11-26T10:12:44.661Z,33.23
2018-11-26T10:15:18.794Z,35.15
2018-11-26T10:17:47.574Z,32.40
2018-11-26T10:20:16.269Z,31.87
2018-11-26T10:22:45.659Z,28.75
2018-11-26T10:25:15.477Z,38.47
2018-11-26T10:27:44.401Z,37.87
2018-11-26T10:30:18.570Z,31.17
2018-11-26T10:32:47.968Z,25.70
2018-11-26T10:35:17.449Z,33.83
2018-11-26T10:37:46.310Z,33.55
2018-11-26T10:40:18.146Z,30.80
2018-11-26T10:42:46.911Z,34.45
2018-11-26T10:45:16.793Z,26.17
2018-11-26T10:47:45.809Z,35.87
2018-11-26T10:50:17.822Z,32.53
2018-11-26T10:52:50.665Z,28.23
2018-11-26T10:55:24.821Z,28.10
2018-11-26T10:57:53.590Z,37.93
2018-11-26T11:00:27.769Z,41.73
2018-11-26T11:02:56.465Z,34.05
2018-11-26T11:05:25.270Z,35.47
2018-11-26T11:07:53.957Z,29.30
2018-11-26T11:10:24.688Z,35.70
2018-11-26T11:12:53.385Z,30.93
2018-11-26T11:15:22.105Z,31.77
2018-11-26T11:17:50.810Z,29.90
2018-11-26T11:20:20.620Z,36.27
2018-11-26T11:22:49.334Z,28.00
2018-11-26T11:25:18.490Z,28.50
2018-11-26T11:27:47.434Z,33.10
2018-11-26T11:30:20.191Z,34.97
2018-11-26T11:32:48.918Z,36.00
2018-11-26T11:35:18.358Z,35.25
2018-11-26T11:37:47.885Z,43.07
2018-11-26T11:40:31.924Z,31.97
2018-11-26T11:43:02.101Z,31.43
2018-11-26T11:45:32.508Z,31.63
2018-11-26T11:48:02.357Z,30.68
2018-11-26T11:50:31.058Z,30.00
2018-11-26T11:52:59.731Z,37.63
2018-11-26T11:55:28.430Z,34.60
2018-11-26T11:57:57.110Z,30.20
2018-11-26T12:00:29.030Z,25.35
2018-11-26T12:02:57.746Z,28.98
2018-11-26T12:05:26.543Z,29.52
2018-11-26T12:07:55.201Z,41.77
2018-11-26T12:10:23.937Z,29.72
2018-11-26T12:12:52.640Z,39.87
2018-11-26T12:15:21.358Z,31.40
2018-11-26T12:17:50.370Z,47.30
2018-11-26T12:20:19.073Z,38.90
2018-11-26T12:22:48.202Z,24.07
2018-11-26T12:25:19.093Z,31.70
2018-11-26T12:27:48.077Z,45.97
2018-11-26T12:30:19.871Z,31.10
2018-11-26T12:32:48.711Z,25.50
2018-11-26T12:35:17.486Z,27.20
2018-11-26T12:37:46.317Z,34.30
2018-11-26T12:40:17.317Z,33.07
2018-11-26T12:42:46.013Z,25.90
2018-11-26T12:45:18.928Z,29.77
2018-11-26T12:47:48.147Z,30.10
2018-11-26T12:50:16.855Z,28.90
2018-11-26T12:52:45.543Z,29.80
2018-11-26T12:55:15.512Z,28.73
2018-11-26T12:57:45.445Z,33.17
2018-11-26T13:00:15.027Z,20.62
2018-11-26T13:02:44.481Z,25.07
2018-11-26T13:05:16.017Z,27.23
2018-11-26T13:07:44.750Z,31.20
2018-11-26T13:10:15.436Z,19.77
2018-11-26T13:12:44.297Z,30.65
2018-11-26T13:15:15.211Z,29.23
2018-11-26T13:17:43.926Z,27.77
2018-11-26T13:20:20.975Z,28.57
2018-11-26T13:22:50.250Z,33.30
2018-11-26T13:25:20.186Z,31.87
2018-11-26T13:27:50.723Z,30.57
2018-11-26T13:30:28.568Z,23.20
2018-11-26T13:32:58.555Z,22.17
2018-11-26T13:35:27.501Z,27.03
2018-11-26T13:37:56.230Z,27.50
2018-11-26T13:40:24.952Z,28.80
2018-11-26T13:42:53.616Z,29.20
2018-11-26T13:45:29.825Z,33.80
2018-11-26T13:47:58.530Z,29.83
2018-11-26T13:50:29.747Z,22.77
2018-11-26T13:52:58.864Z,27.23
2018-11-26T13:55:27.211Z,21.23
2018-11-26T13:57:55.958Z,27.03
2018-11-26T14:00:24.678Z,22.83
2018-11-26T14:02:53.416Z,25.57
2018-11-26T14:05:22.125Z,19.33
2018-11-26T14:07:51.027Z,25.47
2018-11-26T14:10:22.567Z,23.13
2018-11-26T14:13:03.735Z,26.20
2018-11-26T14:15:32.765Z,22.73
2018-11-26T14:18:01.569Z,24.07
2018-11-26T14:20:30.255Z,23.10
2018-11-26T14:22:58.945Z,23.37
2018-11-26T14:25:27.659Z,20.55
2018-11-26T14:27:56.359Z,21.70
2018-11-26T14:30:27.434Z,20.27
2018-11-26T14:32:56.723Z,25.80
2018-11-26T14:35:25.485Z,24.85
2018-11-26T14:37:58.135Z,20.90
2018-11-26T14:40:29.912Z,24.03
2018-11-26T14:42:58.845Z,25.20
2018-11-26T14:45:27.566Z,16.55
2018-11-26T14:47:56.674Z,18.30
2018-11-26T14:50:25.391Z,25.45
2018-11-26T14:52:54.107Z,21.10
2018-11-26T14:55:24.137Z,14.53
2018-11-26T14:57:52.875Z,20.03
2018-11-26T15:00:21.866Z,20.95
2018-11-26T15:02:50.834Z,23.30
2018-11-26T15:05:19.583Z,18.90
2018-11-26T15:07:48.287Z,12.10
2018-11-26T15:10:22.060Z,14.20
2018-11-26T15:12:50.836Z,18.53
2018-11-26T15:15:21.964Z,13.33
2018-11-26T15:17:51.159Z,14.50
2018-11-26T15:20:25.466Z,24.93
2018-11-26T15:22:55.252Z,17.30
2018-11-26T15:25:26.024Z,14.98
2018-11-26T15:27:57.191Z,17.32
2018-11-26T15:30:25.898Z,17.27
2018-11-26T15:32:54.602Z,17.73
2018-11-26T15:35:24.003Z,13.90
2018-11-26T15:37:52.981Z,18.47
2018-11-26T15:40:22.334Z,12.90
2018-11-26T15:42:51.091Z,18.50
2018-11-26T15:45:24.881Z,15.23
2018-11-26T15:47:54.398Z,14.03
2018-11-26T15:50:23.190Z,12.93
2018-11-26T15:52:52.896Z,17.73
2018-11-26T15:55:22.269Z,16.37
2018-11-26T15:57:51.151Z,16.65
2018-11-26T16:00:26.835Z,19.57
2018-11-26T16:02:55.771Z,17.23
2018-11-26T16:05:26.622Z,17.23
2018-11-26T16:07:57.986Z,21.00
2018-11-26T16:10:26.696Z,24.97
2018-11-26T16:12:56.802Z,22.90
2018-11-26T16:15:27.841Z,19.37
2018-11-26T16:17:58.207Z,24.35
2018-11-26T16:20:27.514Z,33.20
2018-11-26T16:22:57.246Z,25.30
2018-11-26T16:25:25.895Z,13.63
2018-11-26T16:27:54.603Z,16.73
2018-11-26T16:30:23.265Z,14.20
2018-11-26T16:32:57.222Z,17.83
2018-11-26T16:35:27.377Z,20.90
2018-11-26T16:37:56.229Z,14.03
2018-11-26T16:40:24.985Z,15.17
2018-11-26T16:42:53.679Z,16.27
2018-11-26T16:45:23.637Z,15.03
2018-11-26T16:47:53.294Z,19.27
2018-11-26T16:50:24.179Z,19.77
2018-11-26T16:52:52.919Z,21.40
2018-11-26T16:55:21.592Z,17.50
2018-11-26T16:57:50.362Z,16.33
2018-11-26T17:00:21.624Z,29.60
2018-11-26T17:02:51.540Z,16.00
2018-11-26T17:05:26.054Z,19.43
2018-11-26T17:07:54.785Z,22.93
2018-11-26T17:10:23.470Z,16.97
2018-11-26T17:12:52.258Z,23.80
2018-11-26T17:15:20.954Z,18.73
2018-11-26T17:17:49.720Z,15.17
2018-11-26T17:20:18.678Z,17.93
2018-11-26T17:22:47.394Z,13.10
2018-11-26T17:25:16.854Z,17.87
2018-11-26T17:27:45.747Z,17.03
2018-11-26T17:30:17.882Z,14.63
2018-11-26T17:32:47.714Z,16.90
2018-11-26T17:35:17.042Z,20.43
2018-11-26T17:40:22.606Z,13.73
2018-11-26T17:42:51.588Z,19.33
2018-11-26T17:45:21.182Z,20.67
2018-11-26T17:47:54.545Z,16.40
2018-11-26T17:50:24.542Z,28.13
2018-11-26T17:53:00.082Z,20.47
2018-11-26T17:55:30.560Z,15.50
2018-11-26T17:57:59.322Z,17.23
2018-11-26T18:00:31.032Z,22.83
2018-11-26T18:02:59.893Z,18.95
2018-11-26T18:05:30.874Z,22.40
2018-11-26T18:08:05.601Z,18.95
2018-11-26T18:10:34.326Z,23.10
2018-11-26T18:13:03.983Z,21.53
2018-11-26T18:15:32.682Z,19.73
2018-11-26T18:18:01.604Z,20.73
2018-11-26T18:20:30.325Z,19.67
2018-11-26T18:22:59.110Z,15.90
2018-11-26T18:25:28.908Z,22.40
2018-11-26T18:28:03.733Z,24.75
2018-11-26T18:30:37.014Z,18.80
2018-11-26T18:33:06.266Z,19.77
2018-11-26T18:35:35.009Z,13.40
2018-11-26T18:38:04.266Z,18.47
2018-11-26T18:40:32.957Z,20.10
2018-11-26T18:43:02.083Z,21.73
2018-11-26T18:45:30.797Z,13.47
2018-11-26T18:48:00.312Z,12.30
2018-11-26T18:50:29.406Z,18.67
2018-11-26T18:52:58.560Z,15.40
2018-11-26T18:55:27.558Z,16.57
2018-11-26T18:57:56.262Z,15.00
2018-11-26T19:00:27.414Z,16.62
2018-11-26T19:02:56.694Z,16.13
2018-11-26T19:05:25.543Z,16.30
2018-11-26T19:07:54.271Z,17.12
2018-11-26T19:10:25.230Z,14.73
2018-11-26T19:13:00.817Z,21.00
2018-11-26T19:15:34.423Z,13.30
2018-11-26T19:18:16.001Z,16.30
2018-11-26T19:20:44.823Z,21.20
2018-11-26T19:23:13.585Z,17.15
2018-11-26T19:25:42.326Z,21.10
2018-11-26T19:28:11.110Z,24.17
2018-11-26T19:30:40.974Z,13.93
2018-11-26T19:33:10.298Z,15.70
2018-11-26T19:35:39.035Z,17.10
2018-11-26T19:38:08.076Z,19.57
2018-11-26T19:40:38.866Z,14.83
2018-11-26T19:43:08.239Z,15.47
2018-11-26T19:45:37.349Z,18.82
2018-11-26T19:48:07.238Z,17.90
2018-11-26T19:50:36.144Z,21.50
2018-11-26T19:53:06.735Z,17.37
2018-11-26T19:55:35.475Z,16.43
2018-11-26T19:58:04.597Z,14.40
2018-11-26T20:00:33.406Z,18.10
2018-11-26T20:03:18.399Z,19.10
2018-11-26T20:05:52.696Z,16.80
2018-11-26T20:08:22.634Z,26.23
2018-11-26T20:10:51.499Z,19.30
2018-11-26T20:13:20.190Z,20.30
2018-11-26T20:15:49.055Z,20.80
2018-11-26T20:18:17.791Z,19.42
2018-11-26T20:20:46.573Z,14.57
2018-11-26T20:23:15.670Z,18.40
2018-11-26T20:25:46.207Z,20.68
2018-11-26T20:28:13.410Z,13.60
2018-11-26T20:30:42.215Z,16.50
2018-11-26T20:33:11.016Z,19.90
2018-11-26T20:35:39.962Z,20.27
2018-11-26T20:38:10.539Z,18.50
2018-11-26T20:40:39.728Z,21.70
2018-11-26T20:43:10.527Z,19.07
2018-11-26T20:45:40.770Z,17.57
2018-11-26T20:48:10.280Z,22.60
2018-11-26T20:50:40.701Z,14.70
2018-11-26T20:53:10.116Z,15.53
2018-11-26T20:55:39.055Z,19.67
2018-11-26T20:58:07.798Z,20.75
2018-11-26T21:00:36.554Z,16.57
2018-11-26T21:03:06.868Z,20.90
2018-11-26T21:05:35.748Z,20.95
2018-11-26T21:08:04.595Z,18.10
2018-11-26T21:10:33.650Z,17.73
2018-11-26T21:13:03.668Z,22.52
2018-11-26T21:15:32.664Z,24.70
2018-11-26T21:18:04.470Z,19.60
2018-11-26T21:20:36.824Z,18.85
2018-11-26T21:23:08.430Z,16.73
2018-11-26T21:25:37.260Z,16.37
2018-11-26T21:28:06.738Z,19.47
2018-11-26T21:30:35.588Z,26.30
2018-11-26T21:33:04.333Z,17.87
2018-11-26T21:35:33.097Z,29.72
2018-11-26T21:38:02.698Z,26.07
2018-11-26T21:40:31.511Z,16.43
2018-11-26T21:43:00.718Z,21.00
2018-11-26T21:45:33.519Z,17.77
2018-11-26T21:48:02.420Z,24.45
2018-11-26T21:50:31.383Z,15.93
2018-11-26T21:53:00.165Z,24.23
2018-11-26T21:55:29.855Z,23.80
2018-11-26T21:57:58.638Z,20.93
2018-11-26T22:00:30.008Z,18.93
2018-11-26T22:03:05.104Z,18.57
2018-11-26T22:05:33.855Z,17.33
2018-11-26T22:08:03.345Z,25.23
2018-11-26T22:10:32.180Z,15.63
2018-11-26T22:13:01.804Z,18.53
2018-11-26T22:15:30.665Z,17.20
2018-11-26T22:17:59.418Z,16.17
2018-11-26T22:20:29.850Z,16.55
2018-11-26T22:22:58.620Z,19.13
2018-11-26T22:25:27.310Z,19.20
2018-11-26T22:27:56.150Z,10.87
2018-11-26T22:30:30.511Z,13.67
2018-11-26T22:33:00.245Z,15.05
2018-11-26T22:35:30.873Z,14.70
2018-11-26T22:37:59.623Z,13.58
2018-11-26T22:40:28.613Z,16.63
2018-11-26T22:42:57.334Z,13.40
2018-11-26T22:45:29.395Z,12.37
2018-11-26T22:48:13.741Z,15.13
2018-11-26T22:50:43.795Z,12.83
2018-11-26T22:53:12.642Z,20.60
2018-11-26T22:55:41.491Z,12.17
2018-11-26T22:58:14.411Z,17.53
2018-11-26T23:00:47.223Z,14.57
2018-11-26T23:03:18.159Z,18.65
2018-11-26T23:05:47.834Z,11.70
2018-11-26T23:08:16.671Z,14.07
2018-11-26T23:10:45.420Z,13.53
2018-11-26T23:13:14.182Z,16.40
2018-11-26T23:15:43.007Z,12.30
2018-11-26T23:18:11.850Z,15.23
2018-11-26T23:20:40.578Z,15.17
2018-11-26T23:23:09.386Z,12.93
2018-11-26T23:25:38.231Z,13.08
2018-11-26T23:28:07.229Z,14.60
2018-11-26T23:30:35.992Z,14.20
2018-11-26T23:33:05.608Z,15.00
2018-11-26T23:35:34.328Z,16.47
2018-11-26T23:38:04.242Z,13.80
2018-11-26T23:40:34.187Z,14.13
2018-11-26T23:43:02.890Z,13.70
2018-11-26T23:45:31.716Z,18.60
2018-11-26T23:48:00.526Z,17.70
2018-11-26T23:50:29.933Z,22.40
2018-11-26T23:52:58.814Z,22.82
2018-11-26T23:55:27.651Z,15.47
2018-11-26T23:57:57.584Z,16.10
